Peaseville, Vermont
Current Conditions -  °F | °C
As of 9:54 PM on Friday 21 Nov 2014 (Local Time) from KVSF Reporting Station
Clear Clear  
Wind Chill: 20°   Ceiling: Unl
Heat Index: 20°   Visibility: 10mi
Dew Point:   Wind: 0mph
Humidity: 52%   Direction: NA
Pressure: 30.37"   Gusts: NA
Location:  43.2811°N, 72.6352°W
Report Text: KVSF 220254Z AUTO 00000KT 10SM CLR M07/M15 A3037 RMK AO2 SLP293 T10671150 50010
Loading
Personal Weather Stations






























Interactive Weather Map New forecast layout! Learn more

10-Day Weather Forecast

Advertisements
Track Severe Weather on mobile